sensor_id;sensor_type;location;lat;lon;timestamp;temperature;humidity
4578;DHT22;2301;47.354;8.528;2023-06-19T00:00:30;25.30;53.70
4578;DHT22;2301;47.354;8.528;2023-06-19T00:02:57;25.20;53.80
4578;DHT22;2301;47.354;8.528;2023-06-19T00:05:25;25.20;53.80
4578;DHT22;2301;47.354;8.528;2023-06-19T00:07:52;25.10;53.60
4578;DHT22;2301;47.354;8.528;2023-06-19T00:10:19;25.10;53.90
4578;DHT22;2301;47.354;8.528;2023-06-19T00:12:47;25.10;54.00
4578;DHT22;2301;47.354;8.528;2023-06-19T00:15:14;25.10;53.80
4578;DHT22;2301;47.354;8.528;2023-06-19T00:17:41;25.10;53.80
4578;DHT22;2301;47.354;8.528;2023-06-19T00:20:08;25.10;54.40
4578;DHT22;2301;47.354;8.528;2023-06-19T00:22:35;25.00;54.00
4578;DHT22;2301;47.354;8.528;2023-06-19T00:25:03;25.10;53.90
4578;DHT22;2301;47.354;8.528;2023-06-19T00:27:30;25.00;54.00
4578;DHT22;2301;47.354;8.528;2023-06-19T00:29:58;25.00;54.20
4578;DHT22;2301;47.354;8.528;2023-06-19T00:32:27;25.00;54.10
4578;DHT22;2301;47.354;8.528;2023-06-19T00:34:54;24.90;54.10
4578;DHT22;2301;47.354;8.528;2023-06-19T00:37:21;25.00;54.20
4578;DHT22;2301;47.354;8.528;2023-06-19T00:39:48;24.90;54.20
4578;DHT22;2301;47.354;8.528;2023-06-19T00:42:15;24.90;54.10
4578;DHT22;2301;47.354;8.528;2023-06-19T00:44:42;24.90;54.30
4578;DHT22;2301;47.354;8.528;2023-06-19T00:47:11;24.90;54.30
4578;DHT22;2301;47.354;8.528;2023-06-19T00:49:38;24.80;54.40
4578;DHT22;2301;47.354;8.528;2023-06-19T00:52:05;24.80;55.20
4578;DHT22;2301;47.354;8.528;2023-06-19T00:54:33;24.80;54.60
4578;DHT22;2301;47.354;8.528;2023-06-19T00:57:00;24.80;54.40
4578;DHT22;2301;47.354;8.528;2023-06-19T00:59:27;24.80;54.20
4578;DHT22;2301;47.354;8.528;2023-06-19T01:01:55;24.80;54.10
4578;DHT22;2301;47.354;8.528;2023-06-19T01:04:24;24.80;54.40
4578;DHT22;2301;47.354;8.528;2023-06-19T01:06:53;24.80;54.40
4578;DHT22;2301;47.354;8.528;2023-06-19T01:09:26;24.70;54.20
4578;DHT22;2301;47.354;8.528;2023-06-19T01:11:58;24.70;54.90
4578;DHT22;2301;47.354;8.528;2023-06-19T01:14:32;24.70;54.80
4578;DHT22;2301;47.354;8.528;2023-06-19T01:17:02;24.70;55.10
4578;DHT22;2301;47.354;8.528;2023-06-19T01:19:31;24.70;55.10
4578;DHT22;2301;47.354;8.528;2023-06-19T01:22:04;24.70;55.30
4578;DHT22;2301;47.354;8.528;2023-06-19T01:24:30;24.80;55.30
4578;DHT22;2301;47.354;8.528;2023-06-19T01:26:58;24.70;55.10
4578;DHT22;2301;47.354;8.528;2023-06-19T01:29:24;24.80;55.00
4578;DHT22;2301;47.354;8.528;2023-06-19T01:31:56;24.80;55.00
4578;DHT22;2301;47.354;8.528;2023-06-19T01:34:26;24.80;55.30
4578;DHT22;2301;47.354;8.528;2023-06-19T01:36:54;24.80;55.00
4578;DHT22;2301;47.354;8.528;2023-06-19T01:39:24;24.80;55.30
4578;DHT22;2301;47.354;8.528;2023-06-19T01:41:52;24.80;55.20
4578;DHT22;2301;47.354;8.528;2023-06-19T01:44:21;24.80;55.90
4578;DHT22;2301;47.354;8.528;2023-06-19T01:46:48;24.80;55.30
4578;DHT22;2301;47.354;8.528;2023-06-19T01:49:16;24.80;55.50
4578;DHT22;2301;47.354;8.528;2023-06-19T01:51:43;24.80;55.10
4578;DHT22;2301;47.354;8.528;2023-06-19T01:54:10;24.80;55.50
4578;DHT22;2301;47.354;8.528;2023-06-19T01:56:40;24.80;55.50
4578;DHT22;2301;47.354;8.528;2023-06-19T01:59:09;24.70;55.60
4578;DHT22;2301;47.354;8.528;2023-06-19T02:01:39;24.70;55.40
4578;DHT22;2301;47.354;8.528;2023-06-19T02:04:06;24.70;55.50
4578;DHT22;2301;47.354;8.528;2023-06-19T02:06:33;24.60;55.20
4578;DHT22;2301;47.354;8.528;2023-06-19T02:09:01;24.60;55.20
4578;DHT22;2301;47.354;8.528;2023-06-19T02:11:28;24.60;55.30
4578;DHT22;2301;47.354;8.528;2023-06-19T02:13:56;24.60;55.80
4578;DHT22;2301;47.354;8.528;2023-06-19T02:16:23;24.50;55.90
4578;DHT22;2301;47.354;8.528;2023-06-19T02:18:50;24.40;56.20
4578;DHT22;2301;47.354;8.528;2023-06-19T02:21:17;24.50;56.30
4578;DHT22;2301;47.354;8.528;2023-06-19T02:23:44;24.50;56.70
4578;DHT22;2301;47.354;8.528;2023-06-19T02:26:10;24.40;57.00
4578;DHT22;2301;47.354;8.528;2023-06-19T02:28:37;24.40;57.40
4578;DHT22;2301;47.354;8.528;2023-06-19T02:31:06;24.40;57.90
4578;DHT22;2301;47.354;8.528;2023-06-19T02:33:33;24.40;58.70
4578;DHT22;2301;47.354;8.528;2023-06-19T02:36:00;24.40;58.60
4578;DHT22;2301;47.354;8.528;2023-06-19T02:38:28;24.30;59.30
4578;DHT22;2301;47.354;8.528;2023-06-19T02:40:56;24.30;59.10
4578;DHT22;2301;47.354;8.528;2023-06-19T02:43:25;24.30;60.20
4578;DHT22;2301;47.354;8.528;2023-06-19T02:45:52;24.30;60.00
4578;DHT22;2301;47.354;8.528;2023-06-19T02:48:21;24.40;59.90
4578;DHT22;2301;47.354;8.528;2023-06-19T02:50:49;24.40;60.30
4578;DHT22;2301;47.354;8.528;2023-06-19T02:53:16;24.40;61.60
4578;DHT22;2301;47.354;8.528;2023-06-19T02:55:43;24.30;61.60
4578;DHT22;2301;47.354;8.528;2023-06-19T02:58:10;24.30;62.70
4578;DHT22;2301;47.354;8.528;2023-06-19T03:00:37;24.30;61.80
4578;DHT22;2301;47.354;8.528;2023-06-19T03:03:05;24.30;61.90
4578;DHT22;2301;47.354;8.528;2023-06-19T03:05:33;24.30;62.60
4578;DHT22;2301;47.354;8.528;2023-06-19T03:08:00;24.20;63.20
4578;DHT22;2301;47.354;8.528;2023-06-19T03:10:27;24.20;63.30
4578;DHT22;2301;47.354;8.528;2023-06-19T03:12:54;24.10;63.10
4578;DHT22;2301;47.354;8.528;2023-06-19T03:15:23;24.10;63.10
4578;DHT22;2301;47.354;8.528;2023-06-19T03:17:52;24.20;63.10
4578;DHT22;2301;47.354;8.528;2023-06-19T03:20:19;24.20;63.40
4578;DHT22;2301;47.354;8.528;2023-06-19T03:22:47;24.30;63.60
4578;DHT22;2301;47.354;8.528;2023-06-19T03:25:14;24.30;63.50
4578;DHT22;2301;47.354;8.528;2023-06-19T03:27:41;24.30;63.70
4578;DHT22;2301;47.354;8.528;2023-06-19T03:30:08;24.30;64.00
4578;DHT22;2301;47.354;8.528;2023-06-19T03:32:38;24.30;64.00
4578;DHT22;2301;47.354;8.528;2023-06-19T03:35:05;24.30;63.70
4578;DHT22;2301;47.354;8.528;2023-06-19T03:37:32;24.30;63.70
4578;DHT22;2301;47.354;8.528;2023-06-19T03:40:01;24.30;63.80
4578;DHT22;2301;47.354;8.528;2023-06-19T03:42:28;24.30;63.90
4578;DHT22;2301;47.354;8.528;2023-06-19T03:44:55;24.30;63.70
4578;DHT22;2301;47.354;8.528;2023-06-19T03:47:22;24.30;63.90
4578;DHT22;2301;47.354;8.528;2023-06-19T03:49:49;24.30;64.20
4578;DHT22;2301;47.354;8.528;2023-06-19T03:52:17;24.30;64.30
4578;DHT22;2301;47.354;8.528;2023-06-19T03:54:44;24.30;64.20
4578;DHT22;2301;47.354;8.528;2023-06-19T03:57:13;24.30;64.30
4578;DHT22;2301;47.354;8.528;2023-06-19T03:59:40;24.30;63.90
4578;DHT22;2301;47.354;8.528;2023-06-19T04:02:07;24.30;63.90
4578;DHT22;2301;47.354;8.528;2023-06-19T04:04:34;24.30;64.00
4578;DHT22;2301;47.354;8.528;2023-06-19T04:07:01;24.30;64.00
4578;DHT22;2301;47.354;8.528;2023-06-19T04:09:28;24.30;64.00
4578;DHT22;2301;47.354;8.528;2023-06-19T04:11:55;24.30;64.50
4578;DHT22;2301;47.354;8.528;2023-06-19T04:14:24;24.30;64.30
4578;DHT22;2301;47.354;8.528;2023-06-19T04:16:51;24.30;64.40
4578;DHT22;2301;47.354;8.528;2023-06-19T04:19:18;24.30;64.40
4578;DHT22;2301;47.354;8.528;2023-06-19T04:21:45;24.30;64.40
4578;DHT22;2301;47.354;8.528;2023-06-19T04:24:12;24.20;64.00
4578;DHT22;2301;47.354;8.528;2023-06-19T04:26:39;24.30;63.60
4578;DHT22;2301;47.354;8.528;2023-06-19T04:29:07;24.30;64.50
4578;DHT22;2301;47.354;8.528;2023-06-19T04:31:44;24.20;64.70
4578;DHT22;2301;47.354;8.528;2023-06-19T04:34:12;24.30;64.80
4578;DHT22;2301;47.354;8.528;2023-06-19T04:36:39;24.20;66.10
4578;DHT22;2301;47.354;8.528;2023-06-19T04:39:06;24.00;67.20
4578;DHT22;2301;47.354;8.528;2023-06-19T04:41:34;23.90;68.20
4578;DHT22;2301;47.354;8.528;2023-06-19T04:44:04;23.70;69.30
4578;DHT22;2301;47.354;8.528;2023-06-19T04:46:31;23.60;69.80
4578;DHT22;2301;47.354;8.528;2023-06-19T04:48:59;23.40;70.50
4578;DHT22;2301;47.354;8.528;2023-06-19T04:51:30;23.30;70.80
4578;DHT22;2301;47.354;8.528;2023-06-19T04:53:58;23.20;71.50
4578;DHT22;2301;47.354;8.528;2023-06-19T04:56:24;23.20;72.40
4578;DHT22;2301;47.354;8.528;2023-06-19T04:58:51;23.10;72.90
4578;DHT22;2301;47.354;8.528;2023-06-19T05:01:22;23.10;73.10
4578;DHT22;2301;47.354;8.528;2023-06-19T05:03:54;23.00;73.40
4578;DHT22;2301;47.354;8.528;2023-06-19T05:06:22;23.00;73.40
4578;DHT22;2301;47.354;8.528;2023-06-19T05:08:49;22.90;72.80
4578;DHT22;2301;47.354;8.528;2023-06-19T05:11:16;22.90;72.90
4578;DHT22;2301;47.354;8.528;2023-06-19T05:13:43;22.80;73.20
4578;DHT22;2301;47.354;8.528;2023-06-19T05:16:10;22.70;73.30
4578;DHT22;2301;47.354;8.528;2023-06-19T05:18:41;22.60;73.80
4578;DHT22;2301;47.354;8.528;2023-06-19T05:21:08;22.60;74.40
4578;DHT22;2301;47.354;8.528;2023-06-19T05:23:36;22.50;74.80
4578;DHT22;2301;47.354;8.528;2023-06-19T05:26:04;22.50;75.50
4578;DHT22;2301;47.354;8.528;2023-06-19T05:28:31;22.50;76.10
4578;DHT22;2301;47.354;8.528;2023-06-19T05:30:58;22.40;76.80
4578;DHT22;2301;47.354;8.528;2023-06-19T05:33:25;22.40;77.50
4578;DHT22;2301;47.354;8.528;2023-06-19T05:35:52;22.40;77.80
4578;DHT22;2301;47.354;8.528;2023-06-19T05:38:19;22.30;78.40
4578;DHT22;2301;47.354;8.528;2023-06-19T05:40:48;22.30;78.70
4578;DHT22;2301;47.354;8.528;2023-06-19T05:43:15;22.30;79.20
4578;DHT22;2301;47.354;8.528;2023-06-19T05:45:41;22.20;79.60
4578;DHT22;2301;47.354;8.528;2023-06-19T05:48:08;22.20;79.70
4578;DHT22;2301;47.354;8.528;2023-06-19T05:50:35;22.20;80.00
4578;DHT22;2301;47.354;8.528;2023-06-19T05:53:02;22.20;80.90
4578;DHT22;2301;47.354;8.528;2023-06-19T05:55:29;22.20;80.60
4578;DHT22;2301;47.354;8.528;2023-06-19T05:57:57;22.20;81.10
4578;DHT22;2301;47.354;8.528;2023-06-19T06:00:26;22.20;81.20
4578;DHT22;2301;47.354;8.528;2023-06-19T06:02:56;22.20;81.60
4578;DHT22;2301;47.354;8.528;2023-06-19T06:05:25;22.20;81.80
4578;DHT22;2301;47.354;8.528;2023-06-19T06:07:52;22.10;81.80
4578;DHT22;2301;47.354;8.528;2023-06-19T06:10:20;22.10;82.10
4578;DHT22;2301;47.354;8.528;2023-06-19T06:12:47;22.10;82.20
4578;DHT22;2301;47.354;8.528;2023-06-19T06:15:16;22.10;82.30
4578;DHT22;2301;47.354;8.528;2023-06-19T06:17:43;22.10;82.70
4578;DHT22;2301;47.354;8.528;2023-06-19T06:20:10;22.10;83.90
4578;DHT22;2301;47.354;8.528;2023-06-19T06:22:38;22.10;83.40
4578;DHT22;2301;47.354;8.528;2023-06-19T06:25:05;22.10;83.40
4578;DHT22;2301;47.354;8.528;2023-06-19T06:27:33;22.10;83.40
4578;DHT22;2301;47.354;8.528;2023-06-19T06:30:00;22.10;83.40
4578;DHT22;2301;47.354;8.528;2023-06-19T06:32:28;22.20;83.80
4578;DHT22;2301;47.354;8.528;2023-06-19T06:34:56;22.10;84.20
4578;DHT22;2301;47.354;8.528;2023-06-19T06:37:24;22.10;84.50
4578;DHT22;2301;47.354;8.528;2023-06-19T06:39:51;22.20;84.80
4578;DHT22;2301;47.354;8.528;2023-06-19T06:42:18;22.30;85.00
4578;DHT22;2301;47.354;8.528;2023-06-19T06:44:45;22.40;85.40
4578;DHT22;2301;47.354;8.528;2023-06-19T06:47:12;22.50;85.00
4578;DHT22;2301;47.354;8.528;2023-06-19T06:49:41;22.60;85.10
4578;DHT22;2301;47.354;8.528;2023-06-19T06:52:08;22.70;85.00
4578;DHT22;2301;47.354;8.528;2023-06-19T06:54:35;22.80;85.70
4578;DHT22;2301;47.354;8.528;2023-06-19T06:57:02;22.90;85.80
4578;DHT22;2301;47.354;8.528;2023-06-19T06:59:30;23.00;85.50
4578;DHT22;2301;47.354;8.528;2023-06-19T07:01:57;23.10;85.50
4578;DHT22;2301;47.354;8.528;2023-06-19T07:04:24;23.10;85.10
4578;DHT22;2301;47.354;8.528;2023-06-19T07:06:52;23.40;79.60
4578;DHT22;2301;47.354;8.528;2023-06-19T07:09:19;23.70;78.30
4578;DHT22;2301;47.354;8.528;2023-06-19T07:11:47;24.00;77.50
4578;DHT22;2301;47.354;8.528;2023-06-19T07:14:14;24.30;77.40
4578;DHT22;2301;47.354;8.528;2023-06-19T07:16:43;24.50;76.20
4578;DHT22;2301;47.354;8.528;2023-06-19T07:19:10;24.80;75.60
4578;DHT22;2301;47.354;8.528;2023-06-19T07:21:37;25.00;75.10
4578;DHT22;2301;47.354;8.528;2023-06-19T07:24:07;25.10;75.80
4578;DHT22;2301;47.354;8.528;2023-06-19T07:26:34;25.20;76.30
4578;DHT22;2301;47.354;8.528;2023-06-19T07:29:01;25.20;76.70
4578;DHT22;2301;47.354;8.528;2023-06-19T07:31:28;25.20;76.70
4578;DHT22;2301;47.354;8.528;2023-06-19T07:33:56;25.30;77.00
4578;DHT22;2301;47.354;8.528;2023-06-19T07:36:23;25.30;77.20
4578;DHT22;2301;47.354;8.528;2023-06-19T07:38:50;25.40;76.10
4578;DHT22;2301;47.354;8.528;2023-06-19T07:41:18;25.50;75.70
4578;DHT22;2301;47.354;8.528;2023-06-19T07:43:45;25.60;75.70
4578;DHT22;2301;47.354;8.528;2023-06-19T07:46:12;25.70;75.70
4578;DHT22;2301;47.354;8.528;2023-06-19T07:48:40;25.70;75.30
4578;DHT22;2301;47.354;8.528;2023-06-19T07:51:07;25.70;73.80
4578;DHT22;2301;47.354;8.528;2023-06-19T07:53:35;25.80;74.40
4578;DHT22;2301;47.354;8.528;2023-06-19T07:56:02;25.80;75.10
4578;DHT22;2301;47.354;8.528;2023-06-19T07:58:31;25.70;74.90
4578;DHT22;2301;47.354;8.528;2023-06-19T08:00:58;25.70;75.30
4578;DHT22;2301;47.354;8.528;2023-06-19T08:03:25;25.90;76.00
4578;DHT22;2301;47.354;8.528;2023-06-19T08:05:52;26.20;75.10
4578;DHT22;2301;47.354;8.528;2023-06-19T08:08:19;26.40;74.50
4578;DHT22;2301;47.354;8.528;2023-06-19T08:10:46;26.60;73.60
4578;DHT22;2301;47.354;8.528;2023-06-19T08:13:13;26.80;71.80
4578;DHT22;2301;47.354;8.528;2023-06-19T08:15:41;26.90;71.40
4578;DHT22;2301;47.354;8.528;2023-06-19T08:18:10;27.10;70.60
4578;DHT22;2301;47.354;8.528;2023-06-19T08:20:37;27.10;68.10
4578;DHT22;2301;47.354;8.528;2023-06-19T08:23:04;27.20;68.60
4578;DHT22;2301;47.354;8.528;2023-06-19T08:25:30;27.20;68.10
4578;DHT22;2301;47.354;8.528;2023-06-19T08:27:57;27.40;69.60
4578;DHT22;2301;47.354;8.528;2023-06-19T08:30:24;27.60;68.50
4578;DHT22;2301;47.354;8.528;2023-06-19T08:32:53;27.90;66.10
4578;DHT22;2301;47.354;8.528;2023-06-19T08:35:21;28.00;66.50
4578;DHT22;2301;47.354;8.528;2023-06-19T08:37:52;28.20;67.00
4578;DHT22;2301;47.354;8.528;2023-06-19T08:40:20;28.50;66.40
4578;DHT22;2301;47.354;8.528;2023-06-19T08:42:48;28.60;65.60
4578;DHT22;2301;47.354;8.528;2023-06-19T08:45:14;28.80;64.10
4578;DHT22;2301;47.354;8.528;2023-06-19T08:47:44;29.00;63.00
4578;DHT22;2301;47.354;8.528;2023-06-19T08:50:12;29.10;61.90
4578;DHT22;2301;47.354;8.528;2023-06-19T08:52:39;29.40;61.70
4578;DHT22;2301;47.354;8.528;2023-06-19T08:55:06;29.50;60.70
4578;DHT22;2301;47.354;8.528;2023-06-19T08:57:34;29.60;61.30
4578;DHT22;2301;47.354;8.528;2023-06-19T09:00:03;29.90;59.70
4578;DHT22;2301;47.354;8.528;2023-06-19T09:02:41;29.90;58.40
4578;DHT22;2301;47.354;8.528;2023-06-19T09:05:15;30.00;58.20
4578;DHT22;2301;47.354;8.528;2023-06-19T09:07:42;30.10;56.70
4578;DHT22;2301;47.354;8.528;2023-06-19T09:10:15;30.20;56.30
4578;DHT22;2301;47.354;8.528;2023-06-19T09:12:42;30.20;55.30
4578;DHT22;2301;47.354;8.528;2023-06-19T09:15:13;30.20;54.20
4578;DHT22;2301;47.354;8.528;2023-06-19T09:17:40;30.20;54.40
4578;DHT22;2301;47.354;8.528;2023-06-19T09:20:08;30.30;55.40
4578;DHT22;2301;47.354;8.528;2023-06-19T09:22:38;30.40;55.20
4578;DHT22;2301;47.354;8.528;2023-06-19T09:25:10;30.50;54.60
4578;DHT22;2301;47.354;8.528;2023-06-19T09:27:40;30.50;54.90
4578;DHT22;2301;47.354;8.528;2023-06-19T09:30:16;30.60;54.20
4578;DHT22;2301;47.354;8.528;2023-06-19T09:32:45;30.70;54.20
4578;DHT22;2301;47.354;8.528;2023-06-19T09:35:15;30.90;55.10
4578;DHT22;2301;47.354;8.528;2023-06-19T09:37:45;31.10;54.70
4578;DHT22;2301;47.354;8.528;2023-06-19T09:40:13;31.30;54.80
4578;DHT22;2301;47.354;8.528;2023-06-19T09:42:41;31.50;54.60
4578;DHT22;2301;47.354;8.528;2023-06-19T09:45:10;31.60;53.50
4578;DHT22;2301;47.354;8.528;2023-06-19T09:47:39;31.80;53.60
4578;DHT22;2301;47.354;8.528;2023-06-19T09:50:12;32.00;53.80
4578;DHT22;2301;47.354;8.528;2023-06-19T09:52:40;32.30;53.20
4578;DHT22;2301;47.354;8.528;2023-06-19T09:55:10;32.40;52.50
4578;DHT22;2301;47.354;8.528;2023-06-19T09:57:39;32.60;53.10
4578;DHT22;2301;47.354;8.528;2023-06-19T10:00:09;32.80;52.70
4578;DHT22;2301;47.354;8.528;2023-06-19T10:02:38;33.00;51.50
4578;DHT22;2301;47.354;8.528;2023-06-19T10:05:06;33.10;51.30
4578;DHT22;2301;47.354;8.528;2023-06-19T10:07:35;33.20;51.40
4578;DHT22;2301;47.354;8.528;2023-06-19T10:10:04;33.40;51.60
4578;DHT22;2301;47.354;8.528;2023-06-19T10:12:48;33.50;50.20
4578;DHT22;2301;47.354;8.528;2023-06-19T10:15:17;33.60;48.90
4578;DHT22;2301;47.354;8.528;2023-06-19T10:17:48;33.60;47.40
4578;DHT22;2301;47.354;8.528;2023-06-19T10:20:26;33.70;47.50
4578;DHT22;2301;47.354;8.528;2023-06-19T10:22:58;33.90;46.90
4578;DHT22;2301;47.354;8.528;2023-06-19T10:25:29;34.00;44.60
4578;DHT22;2301;47.354;8.528;2023-06-19T10:27:58;34.00;43.30
4578;DHT22;2301;47.354;8.528;2023-06-19T10:30:25;34.10;43.50
4578;DHT22;2301;47.354;8.528;2023-06-19T10:32:53;34.20;43.60
4578;DHT22;2301;47.354;8.528;2023-06-19T10:35:20;34.30;43.10
4578;DHT22;2301;47.354;8.528;2023-06-19T10:37:49;34.40;43.30
4578;DHT22;2301;47.354;8.528;2023-06-19T10:40:18;34.50;43.80
4578;DHT22;2301;47.354;8.528;2023-06-19T10:42:45;34.60;43.90
4578;DHT22;2301;47.354;8.528;2023-06-19T10:45:14;34.80;43.70
4578;DHT22;2301;47.354;8.528;2023-06-19T10:47:46;35.00;42.80
4578;DHT22;2301;47.354;8.528;2023-06-19T10:50:14;35.00;41.30
4578;DHT22;2301;47.354;8.528;2023-06-19T10:52:42;35.00;41.30
4578;DHT22;2301;47.354;8.528;2023-06-19T10:55:10;35.10;40.90
4578;DHT22;2301;47.354;8.528;2023-06-19T10:57:38;35.20;41.10
4578;DHT22;2301;47.354;8.528;2023-06-19T11:00:06;35.30;40.80
4578;DHT22;2301;47.354;8.528;2023-06-19T11:02:40;35.50;40.70
4578;DHT22;2301;47.354;8.528;2023-06-19T11:05:09;35.50;39.70
4578;DHT22;2301;47.354;8.528;2023-06-19T11:07:37;35.50;39.50
4578;DHT22;2301;47.354;8.528;2023-06-19T11:10:05;35.50;39.40
4578;DHT22;2301;47.354;8.528;2023-06-19T11:12:32;35.40;38.30
4578;DHT22;2301;47.354;8.528;2023-06-19T11:15:03;35.30;39.00
4578;DHT22;2301;47.354;8.528;2023-06-19T11:17:30;35.30;39.30
4578;DHT22;2301;47.354;8.528;2023-06-19T11:19:58;35.40;39.80
4578;DHT22;2301;47.354;8.528;2023-06-19T11:22:36;35.20;38.70
4578;DHT22;2301;47.354;8.528;2023-06-19T11:25:05;35.00;39.10
4578;DHT22;2301;47.354;8.528;2023-06-19T11:27:32;34.90;39.80
4578;DHT22;2301;47.354;8.528;2023-06-19T11:30:02;35.00;40.40
4578;DHT22;2301;47.354;8.528;2023-06-19T11:32:36;35.00;40.40
4578;DHT22;2301;47.354;8.528;2023-06-19T11:35:10;35.00;39.80
4578;DHT22;2301;47.354;8.528;2023-06-19T11:37:40;35.00;39.80
4578;DHT22;2301;47.354;8.528;2023-06-19T11:40:08;34.90;39.90
4578;DHT22;2301;47.354;8.528;2023-06-19T11:42:47;34.90;40.10
4578;DHT22;2301;47.354;8.528;2023-06-19T11:45:14;34.90;39.60
4578;DHT22;2301;47.354;8.528;2023-06-19T11:47:42;34.90;39.50
4578;DHT22;2301;47.354;8.528;2023-06-19T11:50:12;34.90;38.30
4578;DHT22;2301;47.354;8.528;2023-06-19T11:52:39;34.80;37.30
4578;DHT22;2301;47.354;8.528;2023-06-19T11:55:06;34.90;37.70
4578;DHT22;2301;47.354;8.528;2023-06-19T11:57:33;34.90;37.20
4578;DHT22;2301;47.354;8.528;2023-06-19T12:00:01;34.80;36.70
4578;DHT22;2301;47.354;8.528;2023-06-19T12:02:32;34.80;37.40
4578;DHT22;2301;47.354;8.528;2023-06-19T12:04:59;34.90;37.50
4578;DHT22;2301;47.354;8.528;2023-06-19T12:07:27;35.00;37.30
4578;DHT22;2301;47.354;8.528;2023-06-19T12:09:54;35.00;37.50
4578;DHT22;2301;47.354;8.528;2023-06-19T12:12:21;35.10;37.40
4578;DHT22;2301;47.354;8.528;2023-06-19T12:14:48;35.10;36.60
4578;DHT22;2301;47.354;8.528;2023-06-19T12:17:16;35.10;36.40
4578;DHT22;2301;47.354;8.528;2023-06-19T12:19:43;35.20;36.90
4578;DHT22;2301;47.354;8.528;2023-06-19T12:22:10;35.30;36.10
4578;DHT22;2301;47.354;8.528;2023-06-19T12:24:38;35.30;36.10
4578;DHT22;2301;47.354;8.528;2023-06-19T12:27:05;35.30;36.10
4578;DHT22;2301;47.354;8.528;2023-06-19T12:29:32;35.30;36.20
4578;DHT22;2301;47.354;8.528;2023-06-19T12:32:00;35.30;35.40
4578;DHT22;2301;47.354;8.528;2023-06-19T12:34:28;35.30;34.40
4578;DHT22;2301;47.354;8.528;2023-06-19T12:36:55;35.20;34.80
4578;DHT22;2301;47.354;8.528;2023-06-19T12:39:23;35.20;35.10
4578;DHT22;2301;47.354;8.528;2023-06-19T12:41:52;35.20;35.00
4578;DHT22;2301;47.354;8.528;2023-06-19T12:44:21;35.20;34.80
4578;DHT22;2301;47.354;8.528;2023-06-19T12:46:48;35.20;34.90
4578;DHT22;2301;47.354;8.528;2023-06-19T12:49:15;35.20;35.30
4578;DHT22;2301;47.354;8.528;2023-06-19T12:51:42;35.20;35.10
4578;DHT22;2301;47.354;8.528;2023-06-19T12:54:09;35.20;35.20
4578;DHT22;2301;47.354;8.528;2023-06-19T12:56:36;35.20;35.60
4578;DHT22;2301;47.354;8.528;2023-06-19T12:59:04;35.20;35.90
4578;DHT22;2301;47.354;8.528;2023-06-19T13:01:31;35.20;35.70
4578;DHT22;2301;47.354;8.528;2023-06-19T13:03:58;35.20;35.60
4578;DHT22;2301;47.354;8.528;2023-06-19T13:06:25;35.20;36.20
4578;DHT22;2301;47.354;8.528;2023-06-19T13:08:52;35.20;35.70
4578;DHT22;2301;47.354;8.528;2023-06-19T13:11:19;35.20;35.60
4578;DHT22;2301;47.354;8.528;2023-06-19T13:13:46;35.10;36.00
4578;DHT22;2301;47.354;8.528;2023-06-19T13:16:14;35.00;36.70
4578;DHT22;2301;47.354;8.528;2023-06-19T13:18:41;34.90;37.40
4578;DHT22;2301;47.354;8.528;2023-06-19T13:21:09;34.70;36.60
4578;DHT22;2301;47.354;8.528;2023-06-19T13:23:35;34.50;36.00
4578;DHT22;2301;47.354;8.528;2023-06-19T13:26:02;34.30;34.40
4578;DHT22;2301;47.354;8.528;2023-06-19T13:28:29;34.20;34.00
4578;DHT22;2301;47.354;8.528;2023-06-19T13:30:56;34.30;34.50
4578;DHT22;2301;47.354;8.528;2023-06-19T13:33:25;34.20;34.70
4578;DHT22;2301;47.354;8.528;2023-06-19T13:35:52;34.10;34.50
4578;DHT22;2301;47.354;8.528;2023-06-19T13:38:19;33.90;34.30
4578;DHT22;2301;47.354;8.528;2023-06-19T13:40:47;33.60;34.50
4578;DHT22;2301;47.354;8.528;2023-06-19T13:43:18;33.50;34.70
4578;DHT22;2301;47.354;8.528;2023-06-19T13:45:49;33.30;35.20
4578;DHT22;2301;47.354;8.528;2023-06-19T13:48:21;33.10;35.80
4578;DHT22;2301;47.354;8.528;2023-06-19T13:50:54;33.00;36.10
4578;DHT22;2301;47.354;8.528;2023-06-19T13:53:23;32.90;36.50
4578;DHT22;2301;47.354;8.528;2023-06-19T13:55:50;32.70;35.70
4578;DHT22;2301;47.354;8.528;2023-06-19T13:58:17;32.50;36.00
4578;DHT22;2301;47.354;8.528;2023-06-19T14:00:43;32.40;36.50
4578;DHT22;2301;47.354;8.528;2023-06-19T14:03:10;32.30;36.80
4578;DHT22;2301;47.354;8.528;2023-06-19T14:05:37;32.20;37.60
4578;DHT22;2301;47.354;8.528;2023-06-19T14:08:05;32.10;37.50
4578;DHT22;2301;47.354;8.528;2023-06-19T14:10:32;32.00;38.20
4578;DHT22;2301;47.354;8.528;2023-06-19T14:12:59;32.00;38.60
4578;DHT22;2301;47.354;8.528;2023-06-19T14:15:26;31.90;39.10
4578;DHT22;2301;47.354;8.528;2023-06-19T14:17:53;31.80;39.10
4578;DHT22;2301;47.354;8.528;2023-06-19T14:20:20;31.80;39.50
4578;DHT22;2301;47.354;8.528;2023-06-19T14:22:46;31.70;39.60
4578;DHT22;2301;47.354;8.528;2023-06-19T14:25:15;31.70;39.20
4578;DHT22;2301;47.354;8.528;2023-06-19T14:27:42;31.60;39.60
4578;DHT22;2301;47.354;8.528;2023-06-19T14:30:09;31.50;39.50
4578;DHT22;2301;47.354;8.528;2023-06-19T14:32:37;31.40;39.70
4578;DHT22;2301;47.354;8.528;2023-06-19T14:35:07;31.30;39.50
4578;DHT22;2301;47.354;8.528;2023-06-19T14:37:37;31.30;39.90
4578;DHT22;2301;47.354;8.528;2023-06-19T14:40:05;31.20;39.90
4578;DHT22;2301;47.354;8.528;2023-06-19T14:42:33;31.10;40.00
4578;DHT22;2301;47.354;8.528;2023-06-19T14:45:00;31.00;40.00
4578;DHT22;2301;47.354;8.528;2023-06-19T14:47:27;31.00;40.00
4578;DHT22;2301;47.354;8.528;2023-06-19T14:49:54;30.90;39.90
4578;DHT22;2301;47.354;8.528;2023-06-19T14:52:21;31.00;40.50
4578;DHT22;2301;47.354;8.528;2023-06-19T14:54:48;31.00;40.80
4578;DHT22;2301;47.354;8.528;2023-06-19T14:57:15;31.00;41.00
4578;DHT22;2301;47.354;8.528;2023-06-19T14:59:43;31.10;40.50
4578;DHT22;2301;47.354;8.528;2023-06-19T15:02:10;31.10;40.50
4578;DHT22;2301;47.354;8.528;2023-06-19T15:04:37;31.20;41.10
4578;DHT22;2301;47.354;8.528;2023-06-19T15:07:05;31.30;42.20
4578;DHT22;2301;47.354;8.528;2023-06-19T15:09:32;31.30;42.10
4578;DHT22;2301;47.354;8.528;2023-06-19T15:11:59;31.30;42.30
4578;DHT22;2301;47.354;8.528;2023-06-19T15:14:26;31.30;41.40
4578;DHT22;2301;47.354;8.528;2023-06-19T15:16:54;31.40;41.10
4578;DHT22;2301;47.354;8.528;2023-06-19T15:19:21;31.30;41.00
4578;DHT22;2301;47.354;8.528;2023-06-19T15:21:49;31.30;41.00
4578;DHT22;2301;47.354;8.528;2023-06-19T15:24:16;31.30;41.50
4578;DHT22;2301;47.354;8.528;2023-06-19T15:26:43;31.30;41.50
4578;DHT22;2301;47.354;8.528;2023-06-19T15:29:10;31.30;41.60
4578;DHT22;2301;47.354;8.528;2023-06-19T15:31:38;31.40;41.10
4578;DHT22;2301;47.354;8.528;2023-06-19T15:34:06;31.40;41.00
4578;DHT22;2301;47.354;8.528;2023-06-19T15:36:33;31.50;40.60
4578;DHT22;2301;47.354;8.528;2023-06-19T15:39:01;31.60;40.70
4578;DHT22;2301;47.354;8.528;2023-06-19T15:41:27;31.60;41.40
4578;DHT22;2301;47.354;8.528;2023-06-19T15:43:55;31.60;42.00
4578;DHT22;2301;47.354;8.528;2023-06-19T15:46:22;31.40;41.90
4578;DHT22;2301;47.354;8.528;2023-06-19T15:48:49;31.30;42.20
4578;DHT22;2301;47.354;8.528;2023-06-19T15:51:19;31.30;42.70
4578;DHT22;2301;47.354;8.528;2023-06-19T15:53:46;31.20;45.60
4578;DHT22;2301;47.354;8.528;2023-06-19T15:56:13;31.20;46.80
4578;DHT22;2301;47.354;8.528;2023-06-19T15:58:40;31.00;47.70
4578;DHT22;2301;47.354;8.528;2023-06-19T16:01:07;30.90;48.30
4578;DHT22;2301;47.354;8.528;2023-06-19T16:03:34;30.90;48.80
4578;DHT22;2301;47.354;8.528;2023-06-19T16:06:02;30.80;48.80